sensor_id;sensor_type;location;lat;lon;timestamp;pressure;altitude;pressure_sealevel;temperature;humidity
76553;BME280;65395;53.168;18.156;2023-03-01T00:01:25;102457.63;;;-3.23;74.18
76553;BME280;65395;53.168;18.156;2023-03-01T00:03:53;102460.49;;;-3.24;73.66
76553;BME280;65395;53.168;18.156;2023-03-01T00:06:20;102461.29;;;-3.25;73.75
76553;BME280;65395;53.168;18.156;2023-03-01T00:08:48;102461.64;;;-3.25;73.68
76553;BME280;65395;53.168;18.156;2023-03-01T00:11:26;102464.33;;;-3.24;73.65
76553;BME280;65395;53.168;18.156;2023-03-01T00:13:55;102462.81;;;-3.25;73.64
76553;BME280;65395;53.168;18.156;2023-03-01T00:16:27;102460.88;;;-3.24;73.86
76553;BME280;65395;53.168;18.156;2023-03-01T00:18:56;102456.23;;;-3.24;73.77
76553;BME280;65395;53.168;18.156;2023-03-01T00:21:24;102450.36;;;-3.26;73.69
76553;BME280;65395;53.168;18.156;2023-03-01T00:23:52;102446.30;;;-3.26;73.92
76553;BME280;65395;53.168;18.156;2023-03-01T00:26:20;102443.12;;;-3.27;74.36
76553;BME280;65395;53.168;18.156;2023-03-01T00:28:48;102442.06;;;-3.27;74.42
76553;BME280;65395;53.168;18.156;2023-03-01T00:31:18;102442.51;;;-3.24;74.82
76553;BME280;65395;53.168;18.156;2023-03-01T00:33:45;102446.61;;;-3.22;74.27
76553;BME280;65395;53.168;18.156;2023-03-01T00:36:14;102445.48;;;-3.21;74.30
76553;BME280;65395;53.168;18.156;2023-03-01T00:38:43;102446.91;;;-3.20;74.00
76553;BME280;65395;53.168;18.156;2023-03-01T00:41:13;102443.15;;;-3.19;74.21
76553;BME280;65395;53.168;18.156;2023-03-01T00:43:41;102440.17;;;-3.16;73.91
76553;BME280;65395;53.168;18.156;2023-03-01T00:46:11;102436.45;;;-3.15;73.73
76553;BME280;65395;53.168;18.156;2023-03-01T00:48:39;102436.03;;;-3.13;73.69
76553;BME280;65395;53.168;18.156;2023-03-01T00:51:09;102434.52;;;-3.13;74.21
76553;BME280;65395;53.168;18.156;2023-03-01T00:53:37;102432.80;;;-3.10;74.17
76553;BME280;65395;53.168;18.156;2023-03-01T00:56:06;102425.23;;;-3.08;74.05
76553;BME280;65395;53.168;18.156;2023-03-01T00:58:33;102419.88;;;-3.08;73.98
76553;BME280;65395;53.168;18.156;2023-03-01T01:01:06;102414.85;;;-3.07;74.24
76553;BME280;65395;53.168;18.156;2023-03-01T01:03:33;102415.21;;;-3.07;74.16
76553;BME280;65395;53.168;18.156;2023-03-01T01:06:00;102412.11;;;-3.07;74.15
76553;BME280;65395;53.168;18.156;2023-03-01T01:08:35;102405.48;;;-3.06;73.87
76553;BME280;65395;53.168;18.156;2023-03-01T01:11:02;102401.48;;;-3.06;73.87
76553;BME280;65395;53.168;18.156;2023-03-01T01:13:29;102403.52;;;-3.04;73.66
76553;BME280;65395;53.168;18.156;2023-03-01T01:16:00;102405.25;;;-3.04;73.58
76553;BME280;65395;53.168;18.156;2023-03-01T01:18:28;102398.14;;;-3.07;73.43
76553;BME280;65395;53.168;18.156;2023-03-01T01:20:54;102394.80;;;-3.10;73.40
76553;BME280;65395;53.168;18.156;2023-03-01T01:23:21;102395.70;;;-3.14;73.49
76553;BME280;65395;53.168;18.156;2023-03-01T01:25:48;102390.77;;;-3.19;73.35
76553;BME280;65395;53.168;18.156;2023-03-01T01:28:15;102383.52;;;-3.26;73.48
76553;BME280;65395;53.168;18.156;2023-03-01T01:30:42;102379.22;;;-3.32;73.73
76553;BME280;65395;53.168;18.156;2023-03-01T01:33:09;102378.11;;;-3.39;73.82
76553;BME280;65395;53.168;18.156;2023-03-01T01:35:35;102375.89;;;-3.44;74.00
76553;BME280;65395;53.168;18.156;2023-03-01T01:38:06;102371.85;;;-3.45;73.94
76553;BME280;65395;53.168;18.156;2023-03-01T01:40:34;102365.96;;;-3.48;74.06
76553;BME280;65395;53.168;18.156;2023-03-01T01:43:00;102366.30;;;-3.49;74.10
76553;BME280;65395;53.168;18.156;2023-03-01T01:45:32;102372.04;;;-3.50;74.32
76553;BME280;65395;53.168;18.156;2023-03-01T01:48:04;102375.66;;;-3.48;74.67
76553;BME280;65395;53.168;18.156;2023-03-01T01:50:31;102372.65;;;-3.46;74.49
76553;BME280;65395;53.168;18.156;2023-03-01T01:53:10;102362.04;;;-3.43;74.58
76553;BME280;65395;53.168;18.156;2023-03-01T01:55:43;102355.77;;;-3.39;74.47
76553;BME280;65395;53.168;18.156;2023-03-01T01:58:14;102354.52;;;-3.35;74.64
76553;BME280;65395;53.168;18.156;2023-03-01T02:00:42;102352.90;;;-3.30;74.64
76553;BME280;65395;53.168;18.156;2023-03-01T02:03:13;102357.95;;;-3.26;74.55
76553;BME280;65395;53.168;18.156;2023-03-01T02:05:51;102359.65;;;-3.23;74.23
76553;BME280;65395;53.168;18.156;2023-03-01T02:08:21;102357.74;;;-3.21;74.20
76553;BME280;65395;53.168;18.156;2023-03-01T02:10:50;102359.21;;;-3.20;74.51
76553;BME280;65395;53.168;18.156;2023-03-01T02:13:18;102356.82;;;-3.20;74.48
76553;BME280;65395;53.168;18.156;2023-03-01T02:15:45;102358.54;;;-3.20;74.26
76553;BME280;65395;53.168;18.156;2023-03-01T02:18:15;102356.41;;;-3.20;74.33
76553;BME280;65395;53.168;18.156;2023-03-01T02:20:55;102360.92;;;-3.20;74.32
76553;BME280;65395;53.168;18.156;2023-03-01T02:23:28;102358.02;;;-3.20;74.22
76553;BME280;65395;53.168;18.156;2023-03-01T02:26:17;102352.52;;;-3.20;74.15
76553;BME280;65395;53.168;18.156;2023-03-01T02:28:46;102357.02;;;-3.20;73.97
76553;BME280;65395;53.168;18.156;2023-03-01T02:31:16;102351.48;;;-3.24;74.00
76553;BME280;65395;53.168;18.156;2023-03-01T02:33:54;102343.77;;;-3.27;73.91
76553;BME280;65395;53.168;18.156;2023-03-01T02:36:26;102341.85;;;-3.29;74.03
76553;BME280;65395;53.168;18.156;2023-03-01T02:38:58;102338.05;;;-3.28;73.94
76553;BME280;65395;53.168;18.156;2023-03-01T02:41:27;102331.92;;;-3.29;74.31
76553;BME280;65395;53.168;18.156;2023-03-01T02:43:55;102331.07;;;-3.25;74.10
76553;BME280;65395;53.168;18.156;2023-03-01T02:46:24;102333.09;;;-3.22;74.21
76553;BME280;65395;53.168;18.156;2023-03-01T02:48:54;102330.04;;;-3.19;73.92
76553;BME280;65395;53.168;18.156;2023-03-01T02:54:12;102322.11;;;-3.29;73.99
76553;BME280;65395;53.168;18.156;2023-03-01T02:56:41;102321.35;;;-3.35;74.09
76553;BME280;65395;53.168;18.156;2023-03-01T02:59:10;102319.84;;;-3.39;74.30
76553;BME280;65395;53.168;18.156;2023-03-01T03:01:37;102317.67;;;-3.42;74.11
76553;BME280;65395;53.168;18.156;2023-03-01T03:04:08;102320.80;;;-3.43;74.38
76553;BME280;65395;53.168;18.156;2023-03-01T03:06:37;102321.21;;;-3.42;74.30
76553;BME280;65395;53.168;18.156;2023-03-01T03:09:04;102322.44;;;-3.42;74.33
76553;BME280;65395;53.168;18.156;2023-03-01T03:11:31;102326.17;;;-3.43;74.42
76553;BME280;65395;53.168;18.156;2023-03-01T03:13:59;102323.40;;;-3.45;74.32
76553;BME280;65395;53.168;18.156;2023-03-01T03:16:26;102321.45;;;-3.46;74.30
76553;BME280;65395;53.168;18.156;2023-03-01T03:18:53;102323.21;;;-3.43;74.50
76553;BME280;65395;53.168;18.156;2023-03-01T03:21:19;102316.52;;;-3.38;74.44
76553;BME280;65395;53.168;18.156;2023-03-01T03:23:46;102311.92;;;-3.32;74.26
76553;BME280;65395;53.168;18.156;2023-03-01T03:26:13;102313.52;;;-3.25;74.20
76553;BME280;65395;53.168;18.156;2023-03-01T03:28:41;102310.48;;;-3.19;74.13
76553;BME280;65395;53.168;18.156;2023-03-01T03:31:08;102302.40;;;-3.16;74.10
76553;BME280;65395;53.168;18.156;2023-03-01T03:33:35;102292.86;;;-3.15;74.07
76553;BME280;65395;53.168;18.156;2023-03-01T03:36:02;102289.89;;;-3.15;74.02
76553;BME280;65395;53.168;18.156;2023-03-01T03:38:29;102285.06;;;-3.14;73.94
76553;BME280;65395;53.168;18.156;2023-03-01T03:41:07;102283.16;;;-3.14;73.98
76553;BME280;65395;53.168;18.156;2023-03-01T03:43:36;102281.05;;;-3.16;74.00
76553;BME280;65395;53.168;18.156;2023-03-01T03:46:04;102278.77;;;-3.17;73.93
76553;BME280;65395;53.168;18.156;2023-03-01T03:48:35;102275.33;;;-3.18;73.91
76553;BME280;65395;53.168;18.156;2023-03-01T03:51:02;102286.02;;;-3.20;74.01
76553;BME280;65395;53.168;18.156;2023-03-01T03:53:32;102288.83;;;-3.21;73.97
76553;BME280;65395;53.168;18.156;2023-03-01T03:55:59;102288.09;;;-3.22;73.94
76553;BME280;65395;53.168;18.156;2023-03-01T03:58:26;102292.92;;;-3.24;73.98
76553;BME280;65395;53.168;18.156;2023-03-01T04:00:55;102301.45;;;-3.27;73.90
76553;BME280;65395;53.168;18.156;2023-03-01T04:03:24;102303.79;;;-3.29;73.98
76553;BME280;65395;53.168;18.156;2023-03-01T04:05:52;102300.17;;;-3.31;74.14
76553;BME280;65395;53.168;18.156;2023-03-01T04:08:21;102304.44;;;-3.33;74.13
76553;BME280;65395;53.168;18.156;2023-03-01T04:10:50;102304.61;;;-3.32;74.21
76553;BME280;65395;53.168;18.156;2023-03-01T04:13:20;102310.45;;;-3.29;74.20
76553;BME280;65395;53.168;18.156;2023-03-01T04:15:49;102308.02;;;-3.27;74.17
76553;BME280;65395;53.168;18.156;2023-03-01T04:18:18;102302.96;;;-3.25;74.15
76553;BME280;65395;53.168;18.156;2023-03-01T04:20:46;102304.02;;;-3.23;74.11
76553;BME280;65395;53.168;18.156;2023-03-01T04:23:16;102303.05;;;-3.22;74.30
76553;BME280;65395;53.168;18.156;2023-03-01T04:25:50;102301.40;;;-3.21;74.35
76553;BME280;65395;53.168;18.156;2023-03-01T04:28:26;102292.90;;;-3.22;74.20
76553;BME280;65395;53.168;18.156;2023-03-01T04:30:55;102284.52;;;-3.24;74.37
76553;BME280;65395;53.168;18.156;2023-03-01T04:33:23;102281.08;;;-3.27;74.32
76553;BME280;65395;53.168;18.156;2023-03-01T04:35:51;102279.77;;;-3.30;74.58
76553;BME280;65395;53.168;18.156;2023-03-01T04:38:19;102280.70;;;-3.32;74.69
76553;BME280;65395;53.168;18.156;2023-03-01T04:40:46;102284.10;;;-3.34;74.59
76553;BME280;65395;53.168;18.156;2023-03-01T04:43:13;102280.11;;;-3.35;74.63
76553;BME280;65395;53.168;18.156;2023-03-01T04:45:41;102280.73;;;-3.34;74.66
76553;BME280;65395;53.168;18.156;2023-03-01T04:48:08;102274.46;;;-3.34;74.94
76553;BME280;65395;53.168;18.156;2023-03-01T04:50:35;102271.55;;;-3.32;74.68
76553;BME280;65395;53.168;18.156;2023-03-01T04:53:02;102272.11;;;-3.29;74.79
76553;BME280;65395;53.168;18.156;2023-03-01T04:55:29;102259.84;;;-3.27;74.83
76553;BME280;65395;53.168;18.156;2023-03-01T04:57:56;102244.77;;;-3.32;74.81
76553;BME280;65395;53.168;18.156;2023-03-01T05:00:23;102258.50;;;-3.22;74.76
76553;BME280;65395;53.168;18.156;2023-03-01T05:02:56;102257.86;;;-3.21;74.76
76553;BME280;65395;53.168;18.156;2023-03-01T05:05:34;102260.95;;;-3.21;74.89
76553;BME280;65395;53.168;18.156;2023-03-01T05:08:04;102266.05;;;-3.22;74.84
76553;BME280;65395;53.168;18.156;2023-03-01T05:10:32;102266.65;;;-3.23;75.04
76553;BME280;65395;53.168;18.156;2023-03-01T05:13:02;102270.33;;;-3.25;75.01
76553;BME280;65395;53.168;18.156;2023-03-01T05:15:31;102271.60;;;-3.27;75.04
76553;BME280;65395;53.168;18.156;2023-03-01T05:17:59;102270.01;;;-3.30;75.06
76553;BME280;65395;53.168;18.156;2023-03-01T05:20:28;102270.10;;;-3.31;75.13
76553;BME280;65395;53.168;18.156;2023-03-01T05:22:57;102270.94;;;-3.33;75.08
76553;BME280;65395;53.168;18.156;2023-03-01T05:25:25;102270.96;;;-3.34;75.07
76553;BME280;65395;53.168;18.156;2023-03-01T05:27:52;102268.98;;;-3.35;75.00
76553;BME280;65395;53.168;18.156;2023-03-01T05:30:19;102265.95;;;-3.34;74.97
76553;BME280;65395;53.168;18.156;2023-03-01T05:32:48;102263.23;;;-3.31;75.16
76553;BME280;65395;53.168;18.156;2023-03-01T05:35:17;102266.48;;;-3.28;75.22
76553;BME280;65395;53.168;18.156;2023-03-01T05:37:46;102265.94;;;-3.24;75.28
76553;BME280;65395;53.168;18.156;2023-03-01T05:40:16;102261.73;;;-3.20;75.12
76553;BME280;65395;53.168;18.156;2023-03-01T05:42:45;102266.38;;;-3.17;75.20
76553;BME280;65395;53.168;18.156;2023-03-01T05:45:13;102265.98;;;-3.16;75.31
76553;BME280;65395;53.168;18.156;2023-03-01T05:47:42;102265.59;;;-3.16;75.13
76553;BME280;65395;53.168;18.156;2023-03-01T05:50:12;102265.01;;;-3.17;75.30
76553;BME280;65395;53.168;18.156;2023-03-01T05:52:39;102266.04;;;-3.17;75.25
76553;BME280;65395;53.168;18.156;2023-03-01T05:55:06;102270.55;;;-3.17;75.30
76553;BME280;65395;53.168;18.156;2023-03-01T05:57:34;102271.30;;;-3.18;75.52
76553;BME280;65395;53.168;18.156;2023-03-01T06:00:01;102276.15;;;-3.17;75.49
76553;BME280;65395;53.168;18.156;2023-03-01T06:02:27;102274.85;;;-3.14;75.62
76553;BME280;65395;53.168;18.156;2023-03-01T06:04:55;102271.86;;;-3.10;75.63
76553;BME280;65395;53.168;18.156;2023-03-01T06:07:22;102271.52;;;-3.05;75.56
76553;BME280;65395;53.168;18.156;2023-03-01T06:09:48;102273.40;;;-2.98;75.66
76553;BME280;65395;53.168;18.156;2023-03-01T06:12:15;102274.05;;;-2.91;75.39
76553;BME280;65395;53.168;18.156;2023-03-01T06:14:42;102276.47;;;-2.84;75.28
76553;BME280;65395;53.168;18.156;2023-03-01T06:17:09;102283.73;;;-2.78;75.23
76553;BME280;65395;53.168;18.156;2023-03-01T06:19:36;102280.55;;;-2.72;74.89
76553;BME280;65395;53.168;18.156;2023-03-01T06:22:02;102277.77;;;-2.67;74.99
76553;BME280;65395;53.168;18.156;2023-03-01T06:24:29;102285.02;;;-2.63;74.85
76553;BME280;65395;53.168;18.156;2023-03-01T06:26:56;102282.86;;;-2.59;74.72
76553;BME280;65395;53.168;18.156;2023-03-01T06:29:23;102282.42;;;-2.54;74.67
76553;BME280;65395;53.168;18.156;2023-03-01T06:31:49;102282.48;;;-2.50;74.69
76553;BME280;65395;53.168;18.156;2023-03-01T06:34:16;102281.64;;;-2.47;74.59
76553;BME280;65395;53.168;18.156;2023-03-01T06:36:43;102283.14;;;-2.44;74.48
76553;BME280;65395;53.168;18.156;2023-03-01T06:39:09;102285.45;;;-2.39;74.47
76553;BME280;65395;53.168;18.156;2023-03-01T06:41:36;102289.35;;;-2.35;74.45
76553;BME280;65395;53.168;18.156;2023-03-01T06:44:03;102285.01;;;-2.32;74.38
76553;BME280;65395;53.168;18.156;2023-03-01T06:46:30;102290.27;;;-2.25;74.43
76553;BME280;65395;53.168;18.156;2023-03-01T06:48:57;102289.04;;;-2.19;74.32
76553;BME280;65395;53.168;18.156;2023-03-01T06:51:23;102287.39;;;-2.12;74.25
76553;BME280;65395;53.168;18.156;2023-03-01T06:53:50;102278.16;;;-2.03;74.13
76553;BME280;65395;53.168;18.156;2023-03-01T06:56:17;102276.47;;;-1.92;73.97
76553;BME280;65395;53.168;18.156;2023-03-01T06:58:43;102275.71;;;-1.83;73.84
76553;BME280;65395;53.168;18.156;2023-03-01T07:01:10;102277.13;;;-1.74;73.70
76553;BME280;65395;53.168;18.156;2023-03-01T07:03:37;102275.94;;;-1.67;73.62
76553;BME280;65395;53.168;18.156;2023-03-01T07:06:03;102267.69;;;-1.60;73.50
76553;BME280;65395;53.168;18.156;2023-03-01T07:08:30;102273.36;;;-1.52;73.46
76553;BME280;65395;53.168;18.156;2023-03-01T07:10:58;102270.56;;;-1.46;73.32
76553;BME280;65395;53.168;18.156;2023-03-01T07:13:25;102270.11;;;-1.38;73.33
76553;BME280;65395;53.168;18.156;2023-03-01T07:15:51;102262.02;;;-1.31;73.26
76553;BME280;65395;53.168;18.156;2023-03-01T07:18:18;102257.70;;;-1.23;73.19
76553;BME280;65395;53.168;18.156;2023-03-01T07:20:45;102251.66;;;-1.15;72.98
76553;BME280;65395;53.168;18.156;2023-03-01T07:23:12;102255.84;;;-1.06;72.78
76553;BME280;65395;53.168;18.156;2023-03-01T07:25:38;102255.70;;;-0.98;72.74
76553;BME280;65395;53.168;18.156;2023-03-01T07:28:05;102250.83;;;-0.88;72.45
76553;BME280;65395;53.168;18.156;2023-03-01T07:30:32;102250.52;;;-0.79;72.12
76553;BME280;65395;53.168;18.156;2023-03-01T07:32:59;102247.58;;;-0.70;72.14
76553;BME280;65395;53.168;18.156;2023-03-01T07:35:26;102243.61;;;-0.62;72.03
76553;BME280;65395;53.168;18.156;2023-03-01T07:37:53;102244.33;;;-0.53;72.13
76553;BME280;65395;53.168;18.156;2023-03-01T07:40:20;102248.90;;;-0.45;72.02
76553;BME280;65395;53.168;18.156;2023-03-01T07:42:47;102244.74;;;-0.36;72.05
76553;BME280;65395;53.168;18.156;2023-03-01T07:45:14;102243.55;;;-0.29;71.93
76553;BME280;65395;53.168;18.156;2023-03-01T07:47:40;102248.12;;;-0.20;71.76
76553;BME280;65395;53.168;18.156;2023-03-01T07:50:08;102247.61;;;-0.12;71.73
76553;BME280;65395;53.168;18.156;2023-03-01T07:52:35;102246.69;;;-0.02;71.97
76553;BME280;65395;53.168;18.156;2023-03-01T07:55:02;102241.41;;;0.08;71.79
76553;BME280;65395;53.168;18.156;2023-03-01T07:57:28;102240.60;;;0.17;71.98
76553;BME280;65395;53.168;18.156;2023-03-01T07:59:55;102243.46;;;0.27;71.61
76553;BME280;65395;53.168;18.156;2023-03-01T08:02:22;102248.98;;;0.40;71.69
76553;BME280;65395;53.168;18.156;2023-03-01T08:04:48;102244.00;;;0.53;71.41
76553;BME280;65395;53.168;18.156;2023-03-01T08:07:15;102236.09;;;0.64;71.23
76553;BME280;65395;53.168;18.156;2023-03-01T08:09:42;102236.83;;;0.75;71.31
76553;BME280;65395;53.168;18.156;2023-03-01T08:12:09;102237.47;;;0.86;71.14
76553;BME280;65395;53.168;18.156;2023-03-01T08:14:35;102248.75;;;0.95;71.10
76553;BME280;65395;53.168;18.156;2023-03-01T08:17:02;102251.52;;;1.02;70.72
76553;BME280;65395;53.168;18.156;2023-03-01T08:19:29;102248.67;;;1.08;70.99
76553;BME280;65395;53.168;18.156;2023-03-01T08:21:56;102248.20;;;1.14;71.13
76553;BME280;65395;53.168;18.156;2023-03-01T08:24:24;102249.10;;;1.23;71.23
76553;BME280;65395;53.168;18.156;2023-03-01T08:26:51;102246.70;;;1.30;71.26
76553;BME280;65395;53.168;18.156;2023-03-01T08:29:18;102247.27;;;1.36;71.08
76553;BME280;65395;53.168;18.156;2023-03-01T08:31:45;102243.51;;;1.43;71.26
76553;BME280;65395;53.168;18.156;2023-03-01T08:34:14;102245.60;;;1.53;71.27
76553;BME280;65395;53.168;18.156;2023-03-01T08:36:44;102245.53;;;1.63;71.29
76553;BME280;65395;53.168;18.156;2023-03-01T08:39:14;102252.73;;;1.75;71.23
76553;BME280;65395;53.168;18.156;2023-03-01T08:41:41;102246.88;;;1.86;71.42
76553;BME280;65395;53.168;18.156;2023-03-01T08:44:11;102240.86;;;1.99;71.51
76553;BME280;65395;53.168;18.156;2023-03-01T08:46:40;102243.64;;;2.14;71.43
76553;BME280;65395;53.168;18.156;2023-03-01T08:49:11;102241.57;;;2.28;71.17
76553;BME280;65395;53.168;18.156;2023-03-01T08:51:39;102246.57;;;2.42;71.06
76553;BME280;65395;53.168;18.156;2023-03-01T08:54:11;102242.96;;;2.54;70.89
76553;BME280;65395;53.168;18.156;2023-03-01T08:56:38;102243.00;;;2.66;70.89
76553;BME280;65395;53.168;18.156;2023-03-01T08:59:05;102242.80;;;2.77;71.14
76553;BME280;65395;53.168;18.156;2023-03-01T09:01:32;102244.91;;;2.88;70.97
76553;BME280;65395;53.168;18.156;2023-03-01T09:03:59;102247.79;;;2.99;71.27
76553;BME280;65395;53.168;18.156;2023-03-01T09:06:26;102248.19;;;3.12;71.24
76553;BME280;65395;53.168;18.156;2023-03-01T09:08:53;102247.52;;;3.24;70.99
76553;BME280;65395;53.168;18.156;2023-03-01T09:11:22;102243.35;;;3.34;71.11
76553;BME280;65395;53.168;18.156;2023-03-01T09:13:49;102236.94;;;3.46;70.85
76553;BME280;65395;53.168;18.156;2023-03-01T09:16:17;102244.30;;;3.57;71.00
76553;BME280;65395;53.168;18.156;2023-03-01T09:18:50;102245.46;;;3.69;70.68
76553;BME280;65395;53.168;18.156;2023-03-01T09:21:18;102245.79;;;3.77;70.42
76553;BME280;65395;53.168;18.156;2023-03-01T09:23:46;102241.70;;;3.82;70.55
76553;BME280;65395;53.168;18.156;2023-03-01T09:26:19;102242.41;;;3.87;70.20
76553;BME280;65395;53.168;18.156;2023-03-01T09:28:52;102245.10;;;3.91;70.12
76553;BME280;65395;53.168;18.156;2023-03-01T09:31:21;102242.21;;;3.96;70.34
76553;BME280;65395;53.168;18.156;2023-03-01T09:33:50;102237.99;;;4.02;70.39
76553;BME280;65395;53.168;18.156;2023-03-01T09:36:20;102238.91;;;4.08;70.16
76553;BME280;65395;53.168;18.156;2023-03-01T09:38:47;102236.13;;;4.12;70.11
76553;BME280;65395;53.168;18.156;2023-03-01T09:41:38;102233.27;;;4.17;70.06
76553;BME280;65395;53.168;18.156;2023-03-01T09:44:16;102232.73;;;4.23;69.83
76553;BME280;65395;53.168;18.156;2023-03-01T09:46:47;102229.07;;;4.28;69.54
76553;BME280;65395;53.168;18.156;2023-03-01T09:49:19;102229.38;;;4.32;69.62
76553;BME280;65395;53.168;18.156;2023-03-01T09:52:03;102231.77;;;4.38;69.30
76553;BME280;65395;53.168;18.156;2023-03-01T09:54:34;102232.20;;;4.46;69.36
76553;BME280;65395;53.168;18.156;2023-03-01T09:57:18;102233.05;;;4.55;69.32
76553;BME280;65395;53.168;18.156;2023-03-01T10:00:05;102234.65;;;4.67;69.06
76553;BME280;65395;53.168;18.156;2023-03-01T10:02:49;102231.27;;;4.76;68.77
76553;BME280;65395;53.168;18.156;2023-03-01T10:05:39;102232.05;;;4.84;68.55
76553;BME280;65395;53.168;18.156;2023-03-01T10:08:31;102226.05;;;4.92;68.59
76553;BME280;65395;53.168;18.156;2023-03-01T10:11:05;102220.06;;;5.00;68.48
76553;BME280;65395;53.168;18.156;2023-03-01T10:13:54;102218.02;;;5.08;68.28
76553;BME280;65395;53.168;18.156;2023-03-01T10:16:28;102210.16;;;5.16;67.90
76553;BME280;65395;53.168;18.156;2023-03-01T10:19:03;102202.42;;;5.25;67.09
76553;BME280;65395;53.168;18.156;2023-03-01T10:21:39;102195.82;;;5.31;67.14
76553;BME280;65395;53.168;18.156;2023-03-01T10:24:13;102191.21;;;5.39;66.99
76553;BME280;65395;53.168;18.156;2023-03-01T10:26:55;102185.12;;;5.49;67.37
76553;BME280;65395;53.168;18.156;2023-03-01T10:29:30;102180.02;;;5.56;66.70
76553;BME280;65395;53.168;18.156;2023-03-01T10:31:58;102181.48;;;5.63;66.66
76553;BME280;65395;53.168;18.156;2023-03-01T10:34:30;102179.88;;;5.68;66.47
76553;BME280;65395;53.168;18.156;2023-03-01T10:37:09;102177.25;;;5.73;66.53
76553;BME280;65395;53.168;18.156;2023-03-01T10:39:55;102173.30;;;5.78;66.31
76553;BME280;65395;53.168;18.156;2023-03-01T10:42:29;102171.61;;;5.83;66.47
76553;BME280;65395;53.168;18.156;2023-03-01T10:44:57;102169.58;;;5.92;66.49
76553;BME280;65395;53.168;18.156;2023-03-01T10:47:27;102162.89;;;6.00;66.44
76553;BME280;65395;53.168;18.156;2023-03-01T10:50:00;102161.98;;;6.08;65.92
76553;BME280;65395;53.168;18.156;2023-03-01T10:52:37;102158.91;;;6.13;65.69
76553;BME280;65395;53.168;18.156;2023-03-01T10:55:23;102155.67;;;6.19;65.45
76553;BME280;65395;53.168;18.156;2023-03-01T10:58:16;102153.80;;;6.25;65.57
76553;BME280;65395;53.168;18.156;2023-03-01T11:00:48;102150.81;;;6.31;65.08
76553;BME280;65395;53.168;18.156;2023-03-01T11:03:22;102153.81;;;6.37;64.44
76553;BME280;65395;53.168;18.156;2023-03-01T11:05:55;102146.95;;;6.41;64.40
76553;BME280;65395;53.168;18.156;2023-03-01T11:08:35;102141.02;;;6.50;64.39
76553;BME280;65395;53.168;18.156;2023-03-01T11:11:13;102140.28;;;6.61;63.87
76553;BME280;65395;53.168;18.156;2023-03-01T11:13:52;102143.45;;;6.68;62.41
76553;BME280;65395;53.168;18.156;2023-03-01T11:16:26;102143.59;;;6.69;62.49
76553;BME280;65395;53.168;18.156;2023-03-01T11:18:58;102137.56;;;6.71;62.78
76553;BME280;65395;53.168;18.156;2023-03-01T11:21:26;102144.80;;;6.75;61.98
76553;BME280;65395;53.168;18.156;2023-03-01T11:23:55;102143.60;;;6.78;61.46
76553;BME280;65395;53.168;18.156;2023-03-01T11:26:24;102141.61;;;6.79;61.19
76553;BME280;65395;53.168;18.156;2023-03-01T11:28:55;102139.15;;;6.84;60.94
76553;BME280;65395;53.168;18.156;2023-03-01T11:31:25;102135.88;;;6.91;61.00
76553;BME280;65395;53.168;18.156;2023-03-01T11:34:10;102133.45;;;6.99;61.46
76553;BME280;65395;53.168;18.156;2023-03-01T11:36:43;102123.41;;;7.07;61.72
76553;BME280;65395;53.168;18.156;2023-03-01T11:39:31;102121.89;;;7.17;61.30
76553;BME280;65395;53.168;18.156;2023-03-01T11:42:20;102124.27;;;7.22;60.39
76553;BME280;65395;53.168;18.156;2023-03-01T11:44:54;102126.61;;;7.26;59.63
76553;BME280;65395;53.168;18.156;2023-03-01T11:47:38;102122.23;;;7.27;59.43
76553;BME280;65395;53.168;18.156;2023-03-01T11:50:16;102122.17;;;7.29;59.72
76553;BME280;65395;53.168;18.156;2023-03-01T11:53:11;102128.28;;;7.35;59.88
76553;BME280;65395;53.168;18.156;2023-03-01T11:55:58;102126.35;;;7.44;59.64
76553;BME280;65395;53.168;18.156;2023-03-01T11:58:49;102129.05;;;7.47;59.11
76553;BME280;65395;53.168;18.156;2023-03-01T12:01:35;102127.08;;;7.46;59.43
76553;BME280;65395;53.168;18.156;2023-03-01T12:04:30;102121.56;;;7.46;59.40
76553;BME280;65395;53.168;18.156;2023-03-01T12:07:05;102124.11;;;7.54;59.26
76553;BME280;65395;53.168;18.156;2023-03-01T12:12:31;102125.04;;;7.68;59.65
76553;BME280;65395;53.168;18.156;2023-03-01T12:21:00;102127.49;;;7.84;58.85
76553;BME280;65395;53.168;18.156;2023-03-01T12:23:59;102129.16;;;7.83;58.64
76553;BME280;65395;53.168;18.156;2023-03-01T12:26:35;102119.81;;;7.83;58.73
76553;BME280;65395;53.168;18.156;2023-03-01T12:29:34;102127.83;;;7.87;58.04
76553;BME280;65395;53.168;18.156;2023-03-01T12:32:22;102120.95;;;7.88;58.44
76553;BME280;65395;53.168;18.156;2023-03-01T12:37:54;102119.10;;;7.94;59.04
76553;BME280;65395;53.168;18.156;2023-03-01T12:43:21;102114.86;;;8.10;58.50
76553;BME280;65395;53.168;18.156;2023-03-01T12:46:10;102109.33;;;8.20;58.72
76553;BME280;65395;53.168;18.156;2023-03-01T12:51:30;102105.89;;;8.45;58.05
76553;BME280;65395;53.168;18.156;2023-03-01T12:54:01;102103.61;;;8.55;58.55
76553;BME280;65395;53.168;18.156;2023-03-01T12:56:35;102097.77;;;8.67;57.78
76553;BME280;65395;53.168;18.156;2023-03-01T12:59:14;102093.84;;;8.76;57.14
76553;BME280;65395;53.168;18.156;2023-03-01T13:01:54;102095.29;;;8.85;57.11
76553;BME280;65395;53.168;18.156;2023-03-01T13:04:34;102095.38;;;8.93;56.97
76553;BME280;65395;53.168;18.156;2023-03-01T13:13:14;102095.60;;;9.17;56.75
76553;BME280;65395;53.168;18.156;2023-03-01T13:15:44;102092.11;;;9.23;55.16
76553;BME280;65395;53.168;18.156;2023-03-01T13:18:31;102086.44;;;9.19;55.08
76553;BME280;65395;53.168;18.156;2023-03-01T13:21:00;102085.23;;;9.19;55.15
76553;BME280;65395;53.168;18.156;2023-03-01T13:23:31;102085.67;;;9.25;55.89
76553;BME280;65395;53.168;18.156;2023-03-01T13:26:03;102086.51;;;9.31;55.08
76553;BME280;65395;53.168;18.156;2023-03-01T13:28:49;102087.24;;;9.38;55.71